sensor_id;sensor_type;location;lat;lon;timestamp;P1;durP1;ratioP1;P2;durP2;ratioP2
16468;SDS011;8345;50.902;6.956;2022-12-05T00:00:49;19.37;;;14.97;;
16468;SDS011;8345;50.902;6.956;2022-12-05T00:03:16;20.53;;;15.80;;
16468;SDS011;8345;50.902;6.956;2022-12-05T00:05:44;21.40;;;16.40;;
16468;SDS011;8345;50.902;6.956;2022-12-05T00:08:11;24.00;;;16.83;;
16468;SDS011;8345;50.902;6.956;2022-12-05T00:10:39;20.57;;;16.77;;
16468;SDS011;8345;50.902;6.956;2022-12-05T00:13:07;24.87;;;17.53;;
16468;SDS011;8345;50.902;6.956;2022-12-05T00:15:35;23.27;;;17.60;;
16468;SDS011;8345;50.902;6.956;2022-12-05T00:18:02;24.60;;;17.83;;
16468;SDS011;8345;50.902;6.956;2022-12-05T00:20:29;24.30;;;17.80;;
16468;SDS011;8345;50.902;6.956;2022-12-05T00:22:57;24.87;;;17.50;;
16468;SDS011;8345;50.902;6.956;2022-12-05T00:25:24;24.47;;;17.73;;
16468;SDS011;8345;50.902;6.956;2022-12-05T00:27:52;25.27;;;19.27;;
16468;SDS011;8345;50.902;6.956;2022-12-05T00:30:19;26.07;;;18.73;;
16468;SDS011;8345;50.902;6.956;2022-12-05T00:32:47;27.10;;;18.60;;
16468;SDS011;8345;50.902;6.956;2022-12-05T00:35:14;28.43;;;19.37;;
16468;SDS011;8345;50.902;6.956;2022-12-05T00:37:41;25.57;;;18.87;;
16468;SDS011;8345;50.902;6.956;2022-12-05T00:40:09;29.30;;;20.80;;
16468;SDS011;8345;50.902;6.956;2022-12-05T00:42:36;25.70;;;18.93;;
16468;SDS011;8345;50.902;6.956;2022-12-05T00:45:05;31.43;;;19.73;;
16468;SDS011;8345;50.902;6.956;2022-12-05T00:47:33;26.50;;;19.57;;
16468;SDS011;8345;50.902;6.956;2022-12-05T00:50:01;28.80;;;20.67;;
16468;SDS011;8345;50.902;6.956;2022-12-05T00:52:28;29.83;;;19.93;;
16468;SDS011;8345;50.902;6.956;2022-12-05T00:54:55;28.30;;;20.03;;
16468;SDS011;8345;50.902;6.956;2022-12-05T00:57:22;28.80;;;21.67;;
16468;SDS011;8345;50.902;6.956;2022-12-05T00:59:49;30.20;;;21.70;;
16468;SDS011;8345;50.902;6.956;2022-12-05T01:02:18;30.70;;;21.40;;
16468;SDS011;8345;50.902;6.956;2022-12-05T01:04:45;30.73;;;21.70;;
16468;SDS011;8345;50.902;6.956;2022-12-05T01:07:12;30.50;;;21.17;;
16468;SDS011;8345;50.902;6.956;2022-12-05T01:09:39;29.43;;;21.23;;
16468;SDS011;8345;50.902;6.956;2022-12-05T01:12:07;31.23;;;21.80;;
16468;SDS011;8345;50.902;6.956;2022-12-05T01:14:34;29.83;;;20.73;;
16468;SDS011;8345;50.902;6.956;2022-12-05T01:17:01;27.50;;;21.17;;
16468;SDS011;8345;50.902;6.956;2022-12-05T01:19:30;30.57;;;20.50;;
16468;SDS011;8345;50.902;6.956;2022-12-05T01:21:58;26.77;;;20.73;;
16468;SDS011;8345;50.902;6.956;2022-12-05T01:24:25;27.60;;;19.03;;
16468;SDS011;8345;50.902;6.956;2022-12-05T01:26:53;28.03;;;19.80;;
16468;SDS011;8345;50.902;6.956;2022-12-05T01:29:21;27.77;;;20.20;;
16468;SDS011;8345;50.902;6.956;2022-12-05T01:31:49;27.07;;;20.53;;
16468;SDS011;8345;50.902;6.956;2022-12-05T01:34:16;27.73;;;20.23;;
16468;SDS011;8345;50.902;6.956;2022-12-05T01:36:45;25.77;;;19.20;;
16468;SDS011;8345;50.902;6.956;2022-12-05T01:39:12;26.93;;;19.60;;
16468;SDS011;8345;50.902;6.956;2022-12-05T01:41:41;27.63;;;18.87;;
16468;SDS011;8345;50.902;6.956;2022-12-05T01:46:51;26.77;;;19.50;;
16468;SDS011;8345;50.902;6.956;2022-12-05T01:49:20;25.17;;;18.07;;
16468;SDS011;8345;50.902;6.956;2022-12-05T01:51:51;26.93;;;19.13;;
16468;SDS011;8345;50.902;6.956;2022-12-05T01:54:19;25.47;;;18.63;;
16468;SDS011;8345;50.902;6.956;2022-12-05T01:56:47;25.10;;;18.00;;
16468;SDS011;8345;50.902;6.956;2022-12-05T01:59:15;25.50;;;18.87;;
16468;SDS011;8345;50.902;6.956;2022-12-05T02:01:44;24.53;;;16.97;;
16468;SDS011;8345;50.902;6.956;2022-12-05T02:04:11;25.03;;;17.57;;
16468;SDS011;8345;50.902;6.956;2022-12-05T02:06:39;21.30;;;17.00;;
16468;SDS011;8345;50.902;6.956;2022-12-05T02:09:08;22.97;;;18.47;;
16468;SDS011;8345;50.902;6.956;2022-12-05T02:11:35;24.63;;;16.83;;
16468;SDS011;8345;50.902;6.956;2022-12-05T02:14:08;20.90;;;15.27;;
16468;SDS011;8345;50.902;6.956;2022-12-05T02:16:44;22.20;;;15.80;;
16468;SDS011;8345;50.902;6.956;2022-12-05T02:19:18;19.53;;;15.13;;
16468;SDS011;8345;50.902;6.956;2022-12-05T02:21:58;20.63;;;16.53;;
16468;SDS011;8345;50.902;6.956;2022-12-05T02:24:44;23.47;;;16.97;;
16468;SDS011;8345;50.902;6.956;2022-12-05T02:27:33;21.83;;;14.83;;
16468;SDS011;8345;50.902;6.956;2022-12-05T02:30:08;24.10;;;16.13;;
16468;SDS011;8345;50.902;6.956;2022-12-05T02:35:25;21.23;;;15.17;;
16468;SDS011;8345;50.902;6.956;2022-12-05T02:37:55;21.57;;;15.80;;
16468;SDS011;8345;50.902;6.956;2022-12-05T02:40:26;21.63;;;14.93;;
16468;SDS011;8345;50.902;6.956;2022-12-05T02:42:58;21.37;;;15.70;;
16468;SDS011;8345;50.902;6.956;2022-12-05T02:45:27;21.03;;;14.70;;
16468;SDS011;8345;50.902;6.956;2022-12-05T02:47:56;21.17;;;15.20;;
16468;SDS011;8345;50.902;6.956;2022-12-05T02:50:24;18.70;;;14.20;;
16468;SDS011;8345;50.902;6.956;2022-12-05T02:52:52;20.83;;;15.93;;
16468;SDS011;8345;50.902;6.956;2022-12-05T02:55:20;18.67;;;14.63;;
16468;SDS011;8345;50.902;6.956;2022-12-05T02:57:49;20.47;;;14.60;;
16468;SDS011;8345;50.902;6.956;2022-12-05T03:00:18;19.30;;;15.57;;
16468;SDS011;8345;50.902;6.956;2022-12-05T03:02:47;19.27;;;15.47;;
16468;SDS011;8345;50.902;6.956;2022-12-05T03:05:18;17.80;;;14.53;;
16468;SDS011;8345;50.902;6.956;2022-12-05T03:07:47;18.00;;;15.03;;
16468;SDS011;8345;50.902;6.956;2022-12-05T03:10:16;22.43;;;14.57;;
16468;SDS011;8345;50.902;6.956;2022-12-05T03:12:44;20.63;;;15.57;;
16468;SDS011;8345;50.902;6.956;2022-12-05T03:15:14;19.23;;;14.63;;
16468;SDS011;8345;50.902;6.956;2022-12-05T03:17:43;20.23;;;14.53;;
16468;SDS011;8345;50.902;6.956;2022-12-05T03:20:18;21.47;;;15.50;;
16468;SDS011;8345;50.902;6.956;2022-12-05T03:22:48;21.23;;;15.23;;
16468;SDS011;8345;50.902;6.956;2022-12-05T03:25:17;19.27;;;14.13;;
16468;SDS011;8345;50.902;6.956;2022-12-05T03:27:45;20.43;;;14.73;;
16468;SDS011;8345;50.902;6.956;2022-12-05T03:30:14;21.03;;;15.73;;
16468;SDS011;8345;50.902;6.956;2022-12-05T03:32:44;19.13;;;14.83;;
16468;SDS011;8345;50.902;6.956;2022-12-05T03:35:19;19.60;;;14.77;;
16468;SDS011;8345;50.902;6.956;2022-12-05T03:37:50;21.47;;;15.53;;
16468;SDS011;8345;50.902;6.956;2022-12-05T03:40:22;17.90;;;14.20;;
16468;SDS011;8345;50.902;6.956;2022-12-05T03:42:51;19.47;;;14.63;;
16468;SDS011;8345;50.902;6.956;2022-12-05T03:45:21;20.90;;;14.73;;
16468;SDS011;8345;50.902;6.956;2022-12-05T03:47:54;17.90;;;14.60;;
16468;SDS011;8345;50.902;6.956;2022-12-05T03:50:24;18.90;;;14.50;;
16468;SDS011;8345;50.902;6.956;2022-12-05T03:52:53;20.90;;;14.50;;
16468;SDS011;8345;50.902;6.956;2022-12-05T03:55:21;19.97;;;14.83;;
16468;SDS011;8345;50.902;6.956;2022-12-05T03:57:51;18.63;;;13.40;;
16468;SDS011;8345;50.902;6.956;2022-12-05T04:00:20;17.10;;;13.57;;
16468;SDS011;8345;50.902;6.956;2022-12-05T04:02:48;19.13;;;14.27;;
16468;SDS011;8345;50.902;6.956;2022-12-05T04:05:19;17.60;;;13.87;;
16468;SDS011;8345;50.902;6.956;2022-12-05T04:07:49;19.00;;;14.43;;
16468;SDS011;8345;50.902;6.956;2022-12-05T04:10:19;19.07;;;14.33;;
16468;SDS011;8345;50.902;6.956;2022-12-05T04:12:48;19.60;;;14.27;;
16468;SDS011;8345;50.902;6.956;2022-12-05T04:15:18;16.70;;;14.20;;
16468;SDS011;8345;50.902;6.956;2022-12-05T04:17:48;17.60;;;13.73;;
16468;SDS011;8345;50.902;6.956;2022-12-05T04:20:16;17.60;;;13.27;;
16468;SDS011;8345;50.902;6.956;2022-12-05T04:23:03;19.07;;;13.67;;
16468;SDS011;8345;50.902;6.956;2022-12-05T04:25:32;18.87;;;13.47;;
16468;SDS011;8345;50.902;6.956;2022-12-05T04:28:07;18.70;;;13.53;;
16468;SDS011;8345;50.902;6.956;2022-12-05T04:30:37;17.27;;;13.27;;
16468;SDS011;8345;50.902;6.956;2022-12-05T04:33:10;18.03;;;13.43;;
16468;SDS011;8345;50.902;6.956;2022-12-05T04:35:44;17.10;;;13.23;;
16468;SDS011;8345;50.902;6.956;2022-12-05T04:38:14;17.00;;;12.80;;
16468;SDS011;8345;50.902;6.956;2022-12-05T04:40:45;16.27;;;12.80;;
16468;SDS011;8345;50.902;6.956;2022-12-05T04:43:13;16.43;;;13.70;;
16468;SDS011;8345;50.902;6.956;2022-12-05T04:45:42;16.90;;;12.67;;
16468;SDS011;8345;50.902;6.956;2022-12-05T04:48:10;17.90;;;13.80;;
16468;SDS011;8345;50.902;6.956;2022-12-05T04:50:38;17.43;;;13.53;;
16468;SDS011;8345;50.902;6.956;2022-12-05T04:53:06;16.57;;;13.00;;
16468;SDS011;8345;50.902;6.956;2022-12-05T04:55:36;17.60;;;13.73;;
16468;SDS011;8345;50.902;6.956;2022-12-05T04:58:06;15.90;;;13.13;;
16468;SDS011;8345;50.902;6.956;2022-12-05T05:00:34;16.43;;;12.97;;
16468;SDS011;8345;50.902;6.956;2022-12-05T05:03:05;17.80;;;13.73;;
16468;SDS011;8345;50.902;6.956;2022-12-05T05:05:33;18.27;;;14.43;;
16468;SDS011;8345;50.902;6.956;2022-12-05T05:08:01;16.37;;;13.37;;
16468;SDS011;8345;50.902;6.956;2022-12-05T05:10:30;19.23;;;14.03;;
16468;SDS011;8345;50.902;6.956;2022-12-05T05:13:00;18.37;;;13.77;;
16468;SDS011;8345;50.902;6.956;2022-12-05T05:15:27;16.83;;;13.70;;
16468;SDS011;8345;50.902;6.956;2022-12-05T05:17:54;18.63;;;13.90;;
16468;SDS011;8345;50.902;6.956;2022-12-05T05:20:21;17.90;;;13.37;;
16468;SDS011;8345;50.902;6.956;2022-12-05T05:22:49;18.63;;;13.60;;
16468;SDS011;8345;50.902;6.956;2022-12-05T05:25:16;18.63;;;14.57;;
16468;SDS011;8345;50.902;6.956;2022-12-05T05:27:46;19.77;;;14.53;;
16468;SDS011;8345;50.902;6.956;2022-12-05T05:30:15;18.73;;;13.63;;
16468;SDS011;8345;50.902;6.956;2022-12-05T05:32:42;19.13;;;14.47;;
16468;SDS011;8345;50.902;6.956;2022-12-05T05:35:09;18.03;;;13.93;;
16468;SDS011;8345;50.902;6.956;2022-12-05T05:37:37;17.23;;;13.43;;
16468;SDS011;8345;50.902;6.956;2022-12-05T05:40:05;17.00;;;13.90;;
16468;SDS011;8345;50.902;6.956;2022-12-05T05:42:32;18.87;;;14.03;;
16468;SDS011;8345;50.902;6.956;2022-12-05T05:44:59;19.60;;;13.60;;
16468;SDS011;8345;50.902;6.956;2022-12-05T05:47:28;19.47;;;13.87;;
16468;SDS011;8345;50.902;6.956;2022-12-05T05:49:55;18.70;;;13.80;;
16468;SDS011;8345;50.902;6.956;2022-12-05T05:52:22;17.43;;;13.70;;
16468;SDS011;8345;50.902;6.956;2022-12-05T05:54:49;18.10;;;14.20;;
16468;SDS011;8345;50.902;6.956;2022-12-05T05:57:17;18.13;;;13.50;;
16468;SDS011;8345;50.902;6.956;2022-12-05T05:59:44;17.73;;;14.07;;
16468;SDS011;8345;50.902;6.956;2022-12-05T06:02:11;17.77;;;13.47;;
16468;SDS011;8345;50.902;6.956;2022-12-05T06:04:40;20.47;;;15.03;;
16468;SDS011;8345;50.902;6.956;2022-12-05T06:07:07;16.10;;;13.57;;
16468;SDS011;8345;50.902;6.956;2022-12-05T06:09:34;17.83;;;13.57;;
16468;SDS011;8345;50.902;6.956;2022-12-05T06:12:02;19.63;;;14.00;;
16468;SDS011;8345;50.902;6.956;2022-12-05T06:14:29;19.23;;;14.03;;
16468;SDS011;8345;50.902;6.956;2022-12-05T06:16:56;18.40;;;13.20;;
16468;SDS011;8345;50.902;6.956;2022-12-05T06:19:23;17.33;;;14.03;;
16468;SDS011;8345;50.902;6.956;2022-12-05T06:21:52;16.23;;;12.70;;
16468;SDS011;8345;50.902;6.956;2022-12-05T06:24:19;16.27;;;13.03;;
16468;SDS011;8345;50.902;6.956;2022-12-05T06:26:46;17.60;;;13.70;;
16468;SDS011;8345;50.902;6.956;2022-12-05T06:29:13;18.53;;;13.90;;
16468;SDS011;8345;50.902;6.956;2022-12-05T06:31:41;17.60;;;13.43;;
16468;SDS011;8345;50.902;6.956;2022-12-05T06:34:08;18.77;;;14.10;;
16468;SDS011;8345;50.902;6.956;2022-12-05T06:36:35;18.80;;;14.43;;
16468;SDS011;8345;50.902;6.956;2022-12-05T06:39:04;19.60;;;15.40;;
16468;SDS011;8345;50.902;6.956;2022-12-05T06:41:31;18.63;;;14.60;;
16468;SDS011;8345;50.902;6.956;2022-12-05T06:43:58;19.90;;;15.40;;
16468;SDS011;8345;50.902;6.956;2022-12-05T06:46:26;18.37;;;14.80;;
16468;SDS011;8345;50.902;6.956;2022-12-05T06:48:54;21.27;;;16.80;;
16468;SDS011;8345;50.902;6.956;2022-12-05T06:51:21;21.17;;;16.33;;
16468;SDS011;8345;50.902;6.956;2022-12-05T06:53:49;19.83;;;15.00;;
16468;SDS011;8345;50.902;6.956;2022-12-05T06:56:18;18.33;;;13.50;;
16468;SDS011;8345;50.902;6.956;2022-12-05T06:58:46;17.40;;;13.77;;
16468;SDS011;8345;50.902;6.956;2022-12-05T07:01:15;17.03;;;13.97;;
16468;SDS011;8345;50.902;6.956;2022-12-05T07:04:00;14.70;;;12.53;;
16468;SDS011;8345;50.902;6.956;2022-12-05T07:06:28;14.70;;;12.50;;
16468;SDS011;8345;50.902;6.956;2022-12-05T07:08:55;15.07;;;12.23;;
16468;SDS011;8345;50.902;6.956;2022-12-05T07:11:24;13.60;;;12.17;;
16468;SDS011;8345;50.902;6.956;2022-12-05T07:13:51;14.67;;;12.10;;
16468;SDS011;8345;50.902;6.956;2022-12-05T07:16:18;15.30;;;13.40;;
16468;SDS011;8345;50.902;6.956;2022-12-05T07:18:46;15.00;;;12.67;;
16468;SDS011;8345;50.902;6.956;2022-12-05T07:21:14;14.60;;;12.83;;
16468;SDS011;8345;50.902;6.956;2022-12-05T07:23:42;15.17;;;12.27;;
16468;SDS011;8345;50.902;6.956;2022-12-05T07:26:10;17.03;;;12.93;;
16468;SDS011;8345;50.902;6.956;2022-12-05T07:28:39;13.83;;;11.77;;
16468;SDS011;8345;50.902;6.956;2022-12-05T07:31:07;15.13;;;12.40;;
16468;SDS011;8345;50.902;6.956;2022-12-05T07:33:35;15.03;;;12.87;;
16468;SDS011;8345;50.902;6.956;2022-12-05T07:36:03;17.20;;;13.23;;
16468;SDS011;8345;50.902;6.956;2022-12-05T07:38:31;16.97;;;13.87;;
16468;SDS011;8345;50.902;6.956;2022-12-05T07:40:58;17.10;;;13.20;;
16468;SDS011;8345;50.902;6.956;2022-12-05T07:43:25;18.23;;;13.90;;
16468;SDS011;8345;50.902;6.956;2022-12-05T07:45:54;18.17;;;14.30;;
16468;SDS011;8345;50.902;6.956;2022-12-05T07:48:21;17.27;;;14.10;;
16468;SDS011;8345;50.902;6.956;2022-12-05T07:50:48;17.43;;;13.73;;
16468;SDS011;8345;50.902;6.956;2022-12-05T07:53:18;17.90;;;14.00;;
16468;SDS011;8345;50.902;6.956;2022-12-05T07:55:45;18.17;;;14.17;;
16468;SDS011;8345;50.902;6.956;2022-12-05T07:58:13;17.90;;;13.97;;
16468;SDS011;8345;50.902;6.956;2022-12-05T08:00:40;17.97;;;14.60;;
16468;SDS011;8345;50.902;6.956;2022-12-05T08:03:08;17.23;;;13.93;;
16468;SDS011;8345;50.902;6.956;2022-12-05T08:05:36;18.00;;;14.37;;
16468;SDS011;8345;50.902;6.956;2022-12-05T08:08:03;19.17;;;13.77;;
16468;SDS011;8345;50.902;6.956;2022-12-05T08:10:30;17.13;;;14.07;;
16468;SDS011;8345;50.902;6.956;2022-12-05T08:12:58;17.73;;;13.97;;
16468;SDS011;8345;50.902;6.956;2022-12-05T08:15:25;17.90;;;14.30;;
16468;SDS011;8345;50.902;6.956;2022-12-05T08:17:52;16.53;;;13.80;;
16468;SDS011;8345;50.902;6.956;2022-12-05T08:20:20;16.57;;;13.63;;
16468;SDS011;8345;50.902;6.956;2022-12-05T08:22:50;19.50;;;15.23;;
16468;SDS011;8345;50.902;6.956;2022-12-05T08:25:18;17.33;;;13.27;;
16468;SDS011;8345;50.902;6.956;2022-12-05T08:27:45;16.87;;;13.80;;
16468;SDS011;8345;50.902;6.956;2022-12-05T08:30:12;17.03;;;14.50;;
16468;SDS011;8345;50.902;6.956;2022-12-05T08:32:39;18.77;;;14.23;;
16468;SDS011;8345;50.902;6.956;2022-12-05T08:35:07;17.37;;;13.50;;
16468;SDS011;8345;50.902;6.956;2022-12-05T08:37:36;15.00;;;12.93;;
16468;SDS011;8345;50.902;6.956;2022-12-05T08:40:03;17.70;;;13.87;;
16468;SDS011;8345;50.902;6.956;2022-12-05T08:42:31;15.10;;;12.67;;
16468;SDS011;8345;50.902;6.956;2022-12-05T08:44:58;16.27;;;13.03;;
16468;SDS011;8345;50.902;6.956;2022-12-05T08:47:25;15.57;;;12.63;;
16468;SDS011;8345;50.902;6.956;2022-12-05T08:49:52;16.20;;;12.60;;
16468;SDS011;8345;50.902;6.956;2022-12-05T08:52:19;15.57;;;13.00;;
16468;SDS011;8345;50.902;6.956;2022-12-05T08:54:48;16.73;;;12.77;;
16468;SDS011;8345;50.902;6.956;2022-12-05T08:57:15;15.00;;;12.83;;
16468;SDS011;8345;50.902;6.956;2022-12-05T08:59:42;14.53;;;12.50;;
16468;SDS011;8345;50.902;6.956;2022-12-05T09:02:09;15.17;;;12.93;;
16468;SDS011;8345;50.902;6.956;2022-12-05T09:04:37;13.57;;;11.60;;
16468;SDS011;8345;50.902;6.956;2022-12-05T09:07:04;13.10;;;11.53;;
16468;SDS011;8345;50.902;6.956;2022-12-05T09:09:32;14.70;;;11.80;;
16468;SDS011;8345;50.902;6.956;2022-12-05T09:12:00;14.97;;;12.03;;
16468;SDS011;8345;50.902;6.956;2022-12-05T09:14:28;14.57;;;12.37;;
16468;SDS011;8345;50.902;6.956;2022-12-05T09:16:57;13.37;;;10.70;;
16468;SDS011;8345;50.902;6.956;2022-12-05T09:19:24;12.93;;;11.63;;
16468;SDS011;8345;50.902;6.956;2022-12-05T09:21:52;11.33;;;10.13;;
16468;SDS011;8345;50.902;6.956;2022-12-05T09:24:20;11.20;;;10.10;;
16468;SDS011;8345;50.902;6.956;2022-12-05T09:26:47;11.30;;;9.90;;
16468;SDS011;8345;50.902;6.956;2022-12-05T09:29:16;13.00;;;11.20;;
16468;SDS011;8345;50.902;6.956;2022-12-05T09:31:43;12.77;;;11.47;;
16468;SDS011;8345;50.902;6.956;2022-12-05T09:34:11;12.07;;;10.70;;
16468;SDS011;8345;50.902;6.956;2022-12-05T09:36:39;13.83;;;11.03;;
16468;SDS011;8345;50.902;6.956;2022-12-05T09:39:06;13.70;;;12.10;;
16468;SDS011;8345;50.902;6.956;2022-12-05T09:41:46;14.37;;;12.57;;
16468;SDS011;8345;50.902;6.956;2022-12-05T09:44:44;13.67;;;11.27;;
16468;SDS011;8345;50.902;6.956;2022-12-05T09:47:14;12.70;;;11.40;;
16468;SDS011;8345;50.902;6.956;2022-12-05T09:49:45;13.13;;;11.73;;
16468;SDS011;8345;50.902;6.956;2022-12-05T09:52:15;15.33;;;12.33;;
16468;SDS011;8345;50.902;6.956;2022-12-05T09:54:48;13.47;;;12.00;;
16468;SDS011;8345;50.902;6.956;2022-12-05T09:57:16;13.57;;;12.13;;
16468;SDS011;8345;50.902;6.956;2022-12-05T09:59:45;12.57;;;11.13;;
16468;SDS011;8345;50.902;6.956;2022-12-05T10:02:15;13.10;;;11.53;;
16468;SDS011;8345;50.902;6.956;2022-12-05T10:04:49;13.50;;;11.37;;
16468;SDS011;8345;50.902;6.956;2022-12-05T10:07:20;14.30;;;12.27;;
16468;SDS011;8345;50.902;6.956;2022-12-05T10:09:56;13.60;;;11.67;;
16468;SDS011;8345;50.902;6.956;2022-12-05T10:12:33;12.53;;;11.03;;
16468;SDS011;8345;50.902;6.956;2022-12-05T10:15:10;13.23;;;11.60;;
16468;SDS011;8345;50.902;6.956;2022-12-05T10:17:39;13.20;;;11.80;;
16468;SDS011;8345;50.902;6.956;2022-12-05T10:20:09;12.63;;;10.87;;
16468;SDS011;8345;50.902;6.956;2022-12-05T10:22:38;12.97;;;11.57;;
16468;SDS011;8345;50.902;6.956;2022-12-05T10:25:08;13.50;;;11.43;;
16468;SDS011;8345;50.902;6.956;2022-12-05T10:27:37;12.13;;;10.53;;
16468;SDS011;8345;50.902;6.956;2022-12-05T10:30:04;12.17;;;10.97;;
16468;SDS011;8345;50.902;6.956;2022-12-05T10:32:35;12.73;;;11.03;;
16468;SDS011;8345;50.902;6.956;2022-12-05T10:35:13;11.10;;;10.00;;
16468;SDS011;8345;50.902;6.956;2022-12-05T10:37:41;11.20;;;10.10;;
16468;SDS011;8345;50.902;6.956;2022-12-05T10:40:10;10.67;;;9.67;;
16468;SDS011;8345;50.902;6.956;2022-12-05T10:42:38;10.50;;;9.40;;
16468;SDS011;8345;50.902;6.956;2022-12-05T10:45:06;9.90;;;8.90;;
16468;SDS011;8345;50.902;6.956;2022-12-05T10:47:33;9.93;;;8.93;;
16468;SDS011;8345;50.902;6.956;2022-12-05T10:50:03;9.97;;;8.87;;
16468;SDS011;8345;50.902;6.956;2022-12-05T10:52:31;8.97;;;8.17;;
16468;SDS011;8345;50.902;6.956;2022-12-05T10:54:59;9.67;;;8.73;;
16468;SDS011;8345;50.902;6.956;2022-12-05T10:57:28;9.90;;;9.00;;
16468;SDS011;8345;50.902;6.956;2022-12-05T10:59:56;11.43;;;9.63;;
16468;SDS011;8345;50.902;6.956;2022-12-05T11:02:23;11.33;;;9.97;;
16468;SDS011;8345;50.902;6.956;2022-12-05T11:04:51;12.80;;;10.40;;
16468;SDS011;8345;50.902;6.956;2022-12-05T11:07:25;12.53;;;10.93;;
16468;SDS011;8345;50.902;6.956;2022-12-05T11:09:53;17.60;;;15.80;;
16468;SDS011;8345;50.902;6.956;2022-12-05T11:12:21;16.60;;;14.87;;
16468;SDS011;8345;50.902;6.956;2022-12-05T11:14:53;12.03;;;10.73;;
16468;SDS011;8345;50.902;6.956;2022-12-05T11:17:22;11.67;;;10.47;;
16468;SDS011;8345;50.902;6.956;2022-12-05T11:19:50;14.03;;;11.37;;
16468;SDS011;8345;50.902;6.956;2022-12-05T11:22:17;14.07;;;11.80;;
16468;SDS011;8345;50.902;6.956;2022-12-05T11:24:47;14.30;;;11.50;;
16468;SDS011;8345;50.902;6.956;2022-12-05T11:27:18;13.23;;;11.70;;
16468;SDS011;8345;50.902;6.956;2022-12-05T11:29:52;12.90;;;11.27;;
16468;SDS011;8345;50.902;6.956;2022-12-05T11:32:20;14.03;;;12.57;;
16468;SDS011;8345;50.902;6.956;2022-12-05T11:34:50;14.03;;;12.10;;
16468;SDS011;8345;50.902;6.956;2022-12-05T11:37:19;11.80;;;10.60;;
16468;SDS011;8345;50.902;6.956;2022-12-05T11:39:49;12.53;;;11.23;;
16468;SDS011;8345;50.902;6.956;2022-12-05T11:42:20;12.77;;;11.47;;
16468;SDS011;8345;50.902;6.956;2022-12-05T11:44:59;12.17;;;10.93;;
16468;SDS011;8345;50.902;6.956;2022-12-05T11:47:33;12.50;;;11.30;;
16468;SDS011;8345;50.902;6.956;2022-12-05T11:50:10;12.83;;;11.40;;
16468;SDS011;8345;50.902;6.956;2022-12-05T11:52:42;13.00;;;11.27;;
16468;SDS011;8345;50.902;6.956;2022-12-05T11:55:15;13.17;;;11.77;;
16468;SDS011;8345;50.902;6.956;2022-12-05T11:57:53;13.00;;;11.70;;
16468;SDS011;8345;50.902;6.956;2022-12-05T12:00:24;12.83;;;11.53;;
16468;SDS011;8345;50.902;6.956;2022-12-05T12:03:02;13.87;;;12.33;;
16468;SDS011;8345;50.902;6.956;2022-12-05T12:05:34;13.60;;;12.20;;
16468;SDS011;8345;50.902;6.956;2022-12-05T12:08:05;13.87;;;12.57;;
16468;SDS011;8345;50.902;6.956;2022-12-05T12:10:39;15.43;;;12.53;;
16468;SDS011;8345;50.902;6.956;2022-12-05T12:13:13;14.57;;;13.07;;
16468;SDS011;8345;50.902;6.956;2022-12-05T12:15:51;17.27;;;13.47;;
16468;SDS011;8345;50.902;6.956;2022-12-05T12:18:25;14.43;;;13.03;;
16468;SDS011;8345;50.902;6.956;2022-12-05T12:21:03;13.87;;;12.47;;
16468;SDS011;8345;50.902;6.956;2022-12-05T12:23:40;14.13;;;12.67;;
16468;SDS011;8345;50.902;6.956;2022-12-05T12:26:14;14.80;;;13.30;;
16468;SDS011;8345;50.902;6.956;2022-12-05T12:28:50;14.63;;;13.03;;
16468;SDS011;8345;50.902;6.956;2022-12-05T12:31:25;13.27;;;11.87;;
16468;SDS011;8345;50.902;6.956;2022-12-05T12:33:54;14.70;;;13.30;;
16468;SDS011;8345;50.902;6.956;2022-12-05T12:36:24;14.63;;;13.13;;
16468;SDS011;8345;50.902;6.956;2022-12-05T12:39:02;12.93;;;11.30;;
16468;SDS011;8345;50.902;6.956;2022-12-05T12:47:10;16.77;;;14.97;;
16468;SDS011;8345;50.902;6.956;2022-12-05T12:49:44;11.83;;;10.63;;
16468;SDS011;8345;50.902;6.956;2022-12-05T12:52:14;11.90;;;10.70;;
16468;SDS011;8345;50.902;6.956;2022-12-05T12:54:57;14.73;;;11.80;;
16468;SDS011;8345;50.902;6.956;2022-12-05T12:57:28;13.00;;;11.67;;
16468;SDS011;8345;50.902;6.956;2022-12-05T13:00:00;13.90;;;12.30;;
16468;SDS011;8345;50.902;6.956;2022-12-05T13:02:32;14.17;;;12.67;;
16468;SDS011;8345;50.902;6.956;2022-12-05T13:05:03;14.27;;;12.73;;
16468;SDS011;8345;50.902;6.956;2022-12-05T13:07:34;17.13;;;14.00;;
16468;SDS011;8345;50.902;6.956;2022-12-05T13:10:04;16.73;;;13.57;;
16468;SDS011;8345;50.902;6.956;2022-12-05T13:12:33;16.50;;;14.80;;
16468;SDS011;8345;50.902;6.956;2022-12-05T13:15:04;15.23;;;13.63;;
16468;SDS011;8345;50.902;6.956;2022-12-05T13:17:33;14.33;;;12.83;;
16468;SDS011;8345;50.902;6.956;2022-12-05T13:20:02;13.40;;;12.10;;
16468;SDS011;8345;50.902;6.956;2022-12-05T13:22:29;14.77;;;13.17;;
16468;SDS011;8345;50.902;6.956;2022-12-05T13:24:57;14.07;;;12.67;;
16468;SDS011;8345;50.902;6.956;2022-12-05T13:27:24;14.87;;;13.27;;
16468;SDS011;8345;50.902;6.956;2022-12-05T13:29:53;18.17;;;13.90;;
16468;SDS011;8345;50.902;6.956;2022-12-05T13:32:26;15.90;;;14.03;;
16468;SDS011;8345;50.902;6.956;2022-12-05T13:34:55;16.97;;;15.20;;
16468;SDS011;8345;50.902;6.956;2022-12-05T13:37:23;17.83;;;15.33;;
16468;SDS011;8345;50.902;6.956;2022-12-05T13:40:20;16.00;;;13.70;;
16468;SDS011;8345;50.902;6.956;2022-12-05T13:43:06;15.43;;;13.83;;
16468;SDS011;8345;50.902;6.956;2022-12-05T13:45:34;16.43;;;14.33;;
16468;SDS011;8345;50.902;6.956;2022-12-05T13:50:45;15.17;;;13.40;;
16468;SDS011;8345;50.902;6.956;2022-12-05T13:56:05;17.47;;;13.30;;
16468;SDS011;8345;50.902;6.956;2022-12-05T13:58:37;15.57;;;13.00;;
16468;SDS011;8345;50.902;6.956;2022-12-05T14:03:55;14.63;;;13.10;;
16468;SDS011;8345;50.902;6.956;2022-12-05T14:09:10;13.93;;;12.43;;
16468;SDS011;8345;50.902;6.956;2022-12-05T14:17:21;14.00;;;12.60;;
16468;SDS011;8345;50.902;6.956;2022-12-05T14:19:51;16.80;;;15.00;;
16468;SDS011;8345;50.902;6.956;2022-12-05T14:22:23;12.70;;;11.40;;
16468;SDS011;8345;50.902;6.956;2022-12-05T14:24:55;12.43;;;11.23;;
16468;SDS011;8345;50.902;6.956;2022-12-05T14:27:27;12.97;;;11.57;;
16468;SDS011;8345;50.902;6.956;2022-12-05T14:29:58;14.07;;;12.53;;
16468;SDS011;8345;50.902;6.956;2022-12-05T14:32:29;14.43;;;12.93;;
16468;SDS011;8345;50.902;6.956;2022-12-05T14:34:57;15.27;;;13.67;;
16468;SDS011;8345;50.902;6.956;2022-12-05T14:37:28;14.07;;;12.57;;
16468;SDS011;8345;50.902;6.956;2022-12-05T14:39:58;13.27;;;11.97;;
16468;SDS011;8345;50.902;6.956;2022-12-05T14:42:28;12.87;;;11.57;;
16468;SDS011;8345;50.902;6.956;2022-12-05T14:44:57;12.67;;;11.17;;
16468;SDS011;8345;50.902;6.956;2022-12-05T14:47:25;13.20;;;11.87;;
16468;SDS011;8345;50.902;6.956;2022-12-05T14:49:55;14.00;;;12.53;;
16468;SDS011;8345;50.902;6.956;2022-12-05T14:52:25;12.63;;;11.30;;
16468;SDS011;8345;50.902;6.956;2022-12-05T14:54:56;12.67;;;11.27;;
16468;SDS011;8345;50.902;6.956;2022-12-05T14:57:25;14.10;;;12.33;;
16468;SDS011;8345;50.902;6.956;2022-12-05T14:59:54;16.30;;;12.27;;
16468;SDS011;8345;50.902;6.956;2022-12-05T15:02:23;13.63;;;12.27;;
16468;SDS011;8345;50.902;6.956;2022-12-05T15:04:54;13.67;;;12.30;;
16468;SDS011;8345;50.902;6.956;2022-12-05T15:07:25;14.43;;;12.80;;
16468;SDS011;8345;50.902;6.956;2022-12-05T15:09:55;14.70;;;13.13;;
16468;SDS011;8345;50.902;6.956;2022-12-05T15:12:24;13.83;;;12.27;;
16468;SDS011;8345;50.902;6.956;2022-12-05T15:14:55;14.07;;;11.53;;
16468;SDS011;8345;50.902;6.956;2022-12-05T15:17:24;13.90;;;12.33;;